< < Back
Terminal Aerodrome Forecast


Current Version              Previous Versions:   1  2  3  4  5  6  7  8  9  

Terminal Aerodrome Forecast

703
FTUS44 KBMX 221700 RRA
TAFMGM
TAF
KMGM 221743Z 2218/2318 10013KT P6SM BKN250
     FM230000 09008KT P6SM SHRA OVC020
     FM230900 10011KT 4SM TSRA BKN020 OVC035CB
     FM231600 13015G25KT 4SM TSRA BKN020 OVC035CB=

Latest METAR

308
SAUS80 KWBC 230900 RRC
MTRMGM
METAR KMGM 230853Z AUTO 09010KT 10SM OVC007 14/13 A2995 RMK AO2 SLP140
60001 T01440128 58018


USA.gov is the U.S. government's official web portal to all federal, state and local government web resources and services.